Time;durP1;ratioP1;P1;durP2;ratioP2;P2;SDS_P1;SDS_P2;PMS_P1;PMS_P2;Temp;Humidity;BMP_temperature;BMP_pressure;BME280_temperature;BME280_humidity;BME280_pressure;Samples;Min_cycle;Max_cycle;Signal;HPM_P1;HPM_P2
2023/01/07 00:00:48;;;;;;;12.60;5.05;;;;;;;8.15;84.92;96810.56;5044957;28;20055;-80
2023/01/07 00:03:16;;;;;;;11.63;4.70;;;;;;;8.15;84.75;96805.13;5067835;28;20051;-80
2023/01/07 00:05:43;;;;;;;11.35;4.55;;;;;;;8.13;84.75;96797.25;5072669;28;20052;-79
2023/01/07 00:08:10;;;;;;;7.95;4.18;;;;;;;8.14;84.92;96801.59;5058547;28;20049;-79
2023/01/07 00:10:37;;;;;;;15.27;5.70;;;;;;;8.12;85.08;96798.38;5067843;28;20036;-80
2023/01/07 00:13:05;;;;;;;9.82;4.60;;;;;;;8.16;84.52;96798.59;5056517;28;20053;-79
2023/01/07 00:15:32;;;;;;;12.15;5.07;;;;;;;8.16;83.87;96798.59;5060109;28;20060;-79
2023/01/07 00:17:58;;;;;;;11.93;4.88;;;;;;;8.16;84.00;96798.59;5069980;28;20049;-79
2023/01/07 00:20:25;;;;;;;9.68;4.53;;;;;;;8.09;84.53;96799.78;5063966;28;20439;-80
2023/01/07 00:22:54;;;;;;;12.25;4.80;;;;;;;8.07;84.23;96788.38;5057581;28;20049;-79
2023/01/07 00:25:21;;;;;;;15.75;5.97;;;;;;;8.06;84.45;96794.13;5055888;28;20045;-78
2023/01/07 00:27:47;;;;;;;10.52;5.28;;;;;;;8.08;84.65;96797.31;5051496;28;20365;-80
2023/01/07 00:30:15;;;;;;;10.70;4.93;;;;;;;8.07;84.41;96793.00;5060137;28;20052;-79
2023/01/07 00:32:58;;;;;;;10.77;4.45;;;;;;;8.06;84.75;96794.91;5064956;28;20040;-79
2023/01/07 00:35:24;;;;;;;10.15;4.53;;;;;;;8.04;84.92;96797.13;5045085;28;20106;-80
2023/01/07 00:37:52;;;;;;;11.23;4.93;;;;;;;8.03;85.09;96787.34;5062434;28;20485;-79
2023/01/07 00:40:19;;;;;;;9.07;4.13;;;;;;;8.05;84.67;96787.09;5044723;28;20049;-82
2023/01/07 00:42:56;;;;;;;9.35;4.55;;;;;;;8.05;84.78;96779.75;5065870;28;20056;-80
2023/01/07 00:45:25;;;;;;;9.38;4.13;;;;;;;8.03;84.81;96779.22;5056801;28;20183;-80
2023/01/07 00:47:55;;;;;;;10.02;4.50;;;;;;;8.04;85.26;96767.28;5076793;28;20400;-81
2023/01/07 00:50:22;;;;;;;9.45;4.05;;;;;;;8.03;84.81;96779.22;5077433;28;20052;-80
2023/01/07 00:52:48;;;;;;;11.75;4.43;;;;;;;8.03;85.05;96773.78;5057449;28;20045;-80
2023/01/07 00:55:15;;;;;;;12.80;4.35;;;;;;;8.03;85.29;96770.28;5052665;28;20052;-80
2023/01/07 00:57:42;;;;;;;11.98;5.03;;;;;;;7.99;85.32;96772.78;5057657;28;20051;-79
2023/01/07 01:00:11;;;;;;;14.77;4.78;;;;;;;8.00;85.28;96768.97;5066226;28;20049;-80
2023/01/07 01:02:39;;;;;;;14.55;5.55;;;;;;;7.94;85.43;96778.28;5066364;28;20091;-79
2023/01/07 01:05:07;;;;;;;11.00;4.75;;;;;;;8.00;85.08;96773.59;5066355;28;20052;-80
2023/01/07 01:07:34;;;;;;;10.48;4.50;;;;;;;7.97;85.20;96764.09;5064888;28;20041;-80
2023/01/07 01:10:00;;;;;;;9.55;4.90;;;;;;;7.96;85.22;96772.53;5067707;28;20055;-79
2023/01/07 01:12:28;;;;;;;13.65;5.15;;;;;;;7.98;85.15;96771.13;5060388;28;20052;-79
2023/01/07 01:14:54;;;;;;;13.43;5.25;;;;;;;8.01;85.06;96776.00;5053003;28;20055;-79
2023/01/07 01:17:21;;;;;;;9.70;4.72;;;;;;;8.02;85.18;96777.59;5076568;28;20045;-79
2023/01/07 01:19:49;;;;;;;11.82;5.07;;;;;;;7.99;85.07;96778.19;5057818;28;20052;-78
2023/01/07 01:22:15;;;;;;;15.70;5.07;;;;;;;7.97;85.45;96782.28;5055428;28;20033;-79
2023/01/07 01:24:42;;;;;;;11.00;4.43;;;;;;;7.95;85.28;96779.06;5058310;28;20049;-80
2023/01/07 01:27:08;;;;;;;14.38;4.95;;;;;;;7.96;85.60;96769.84;5062274;28;20049;-79
2023/01/07 01:29:35;;;;;;;11.07;4.80;;;;;;;7.91;85.57;96773.41;5056899;28;20456;-79
2023/01/07 01:32:01;;;;;;;10.52;4.43;;;;;;;7.92;85.70;96772.31;5063062;28;20451;-79
2023/01/07 01:34:28;;;;;;;10.00;4.18;;;;;;;7.94;85.54;96777.47;5050557;28;20041;-78
2023/01/07 01:36:56;;;;;;;9.90;4.18;;;;;;;7.94;85.44;96777.47;5053215;28;20394;-79
2023/01/07 01:39:23;;;;;;;11.18;4.57;;;;;;;7.93;85.61;96773.91;5044467;28;20088;-78
2023/01/07 01:41:50;;;;;;;11.32;4.63;;;;;;;7.90;85.64;96774.50;5078845;28;20044;-79
2023/01/07 01:44:45;;;;;;;9.02;4.20;;;;;;;7.90;84.93;96763.66;5071181;28;20051;-78
2023/01/07 01:47:19;;;;;;;11.63;4.53;;;;;;;7.85;85.27;96771.88;5064344;28;20539;-79
2023/01/07 01:49:51;;;;;;;10.48;4.55;;;;;;;7.82;85.64;96767.81;5066020;28;20484;-79
2023/01/07 01:52:23;;;;;;;12.15;4.28;;;;;;;7.81;85.91;96766.22;5072176;28;20041;-79
2023/01/07 01:54:55;;;;;;;11.55;4.65;;;;;;;7.88;85.67;96768.56;5074465;28;20046;-79
2023/01/07 01:57:23;;;;;;;9.02;3.80;;;;;;;7.86;85.68;96765.34;5068345;28;20112;-79
2023/01/07 01:59:52;;;;;;;11.38;4.50;;;;;;;7.85;85.66;96761.81;5064187;28;20056;-79
2023/01/07 02:02:25;;;;;;;12.18;5.05;;;;;;;7.86;85.81;96759.91;5069327;28;20040;-79
2023/01/07 02:04:55;;;;;;;14.93;5.93;;;;;;;7.81;85.79;96751.84;5066593;28;20048;-80
2023/01/07 02:07:22;;;;;;;7.50;3.72;;;;;;;7.81;86.04;96752.66;5062567;28;20049;-79
2023/01/07 02:09:58;;;;;;;8.95;4.15;;;;;;;7.82;85.99;96740.69;5054292;28;20511;-79
2023/01/07 02:12:36;;;;;;;7.55;3.50;;;;;;;7.84;85.88;96743.16;5065447;28;20040;-79
2023/01/07 02:15:10;;;;;;;8.48;3.67;;;;;;;7.83;85.88;96746.97;5051444;28;20163;-81
2023/01/07 02:17:50;;;;;;;10.73;3.95;;;;;;;7.83;86.01;96746.97;5057551;28;20589;-80
2023/01/07 02:20:29;;;;;;;10.32;4.20;;;;;;;7.85;85.84;96740.13;5063134;28;20059;-79
2023/01/07 02:23:27;;;;;;;13.35;4.47;;;;;;;7.84;85.39;96737.72;5048015;28;20048;-79
2023/01/07 02:26:21;;;;;;;9.35;3.92;;;;;;;7.80;85.24;96740.19;5060140;28;20048;-79
2023/01/07 02:29:22;;;;;;;8.93;3.85;;;;;;;7.80;85.57;96732.06;5070695;28;20838;-79
2023/01/07 02:32:11;;;;;;;12.35;4.22;;;;;;;7.80;85.29;96733.97;5058334;28;20048;-80
2023/01/07 02:34:47;;;;;;;10.98;3.88;;;;;;;7.80;85.36;96734.78;5066992;28;20045;-79
2023/01/07 02:37:19;;;;;;;8.60;3.80;;;;;;;7.82;85.48;96729.06;5061541;28;20045;-80
2023/01/07 02:39:57;;;;;;;15.55;5.32;;;;;;;7.79;86.03;96724.22;5061234;28;20053;-79
2023/01/07 02:42:32;;;;;;;10.25;4.55;;;;;;;7.77;86.15;96723.69;5059359;28;20056;-79
2023/01/07 02:45:08;;;;;;;15.05;5.30;;;;;;;7.76;85.72;96708.53;5059184;28;20049;-79
2023/01/07 02:47:38;;;;;;;10.32;4.05;;;;;;;7.78;85.54;96723.44;5074662;28;20067;-80
2023/01/07 02:50:07;;;;;;;8.80;3.67;;;;;;;7.77;85.43;96708.22;5060071;28;20044;-79
2023/01/07 02:52:35;;;;;;;10.20;3.72;;;;;;;7.77;85.14;96704.72;5057561;28;20040;-79
2023/01/07 02:55:05;;;;;;;8.60;3.58;;;;;;;7.77;85.27;96710.13;5061331;28;20055;-79
2023/01/07 02:57:48;;;;;;;9.73;3.53;;;;;;;7.75;85.56;96713.16;5054933;28;20385;-80
2023/01/07 03:00:25;;;;;;;8.48;3.88;;;;;;;7.76;85.32;96708.53;5070500;28;20036;-79
2023/01/07 03:03:15;;;;;;;13.75;3.95;;;;;;;7.75;85.67;96698.78;5047668;28;20048;-79
2023/01/07 03:05:51;;;;;;;8.15;3.70;;;;;;;7.73;85.53;96699.09;5063300;28;20048;-79
2023/01/07 03:08:34;;;;;;;7.60;3.63;;;;;;;7.71;85.92;96695.03;5054689;28;20115;-79
2023/01/07 03:11:03;;;;;;;7.50;3.47;;;;;;;7.70;85.85;96699.66;5064776;28;20048;-79
2023/01/07 03:13:35;;;;;;;6.07;3.15;;;;;;;7.72;85.95;96696.66;5058286;28;20037;-79
2023/01/07 03:16:07;;;;;;;10.38;3.90;;;;;;;7.75;85.96;96687.94;5059279;28;20045;-79
2023/01/07 03:18:40;;;;;;;13.38;4.20;;;;;;;7.75;85.77;96690.66;5071936;28;20484;-79
2023/01/07 03:21:11;;;;;;;8.27;3.22;;;;;;;7.76;85.91;96689.56;5054782;28;20057;-79
2023/01/07 03:23:41;;;;;;;11.88;4.10;;;;;;;7.74;86.24;96692.56;5056355;28;20044;-79
2023/01/07 03:26:10;;;;;;;10.45;3.50;;;;;;;7.72;86.09;96685.81;5054566;28;20056;-79
2023/01/07 03:28:40;;;;;;;11.45;3.75;;;;;;;7.69;85.93;96681.00;5063635;28;20045;-79
2023/01/07 03:31:11;;;;;;;10.65;3.63;;;;;;;7.68;86.04;96679.38;5050489;28;20049;-79
2023/01/07 03:33:45;;;;;;;11.65;3.63;;;;;;;7.69;86.04;96683.69;5073289;28;20070;-80
2023/01/07 03:36:15;;;;;;;10.50;3.50;;;;;;;7.69;86.11;96686.41;5068919;28;20052;-78
2023/01/07 03:38:44;;;;;;;9.20;3.30;;;;;;;7.71;86.21;96673.34;5054902;28;20120;-79
2023/01/07 03:42:38;;;;;;;5.90;2.78;;;;;;;7.71;86.02;96679.59;5058692;28;20044;-79
2023/01/07 03:43:56;;;;;;;10.02;3.40;;;;;;;7.70;86.31;96677.97;5058535;28;20127;-79
2023/01/07 03:46:23;;;;;;;10.57;3.42;;;;;;;7.69;86.51;96670.94;5057819;28;20071;-79
2023/01/07 03:48:54;;;;;;;8.63;3.13;;;;;;;7.68;86.20;96673.97;5054201;28;20041;-78
2023/01/07 03:51:22;;;;;;;10.52;3.60;;;;;;;7.69;86.50;96670.16;5063288;28;20048;-79
2023/01/07 03:53:49;;;;;;;6.43;2.88;;;;;;;7.68;86.64;96665.81;5046656;28;20044;-79
2023/01/07 03:56:16;;;;;;;10.23;3.58;;;;;;;7.70;86.48;96666.34;5053894;28;20045;-79
2023/01/07 03:58:43;;;;;;;10.45;3.47;;;;;;;7.68;86.64;96657.69;5063632;28;20041;-79
2023/01/07 04:01:09;;;;;;;11.10;3.42;;;;;;;7.67;86.78;96664.19;5062035;28;20068;-79
2023/01/07 04:03:36;;;;;;;8.88;3.20;;;;;;;7.64;86.75;96652.03;5045959;28;20046;-81
2023/01/07 04:06:04;;;;;;;7.35;2.83;;;;;;;7.65;86.73;96650.13;5067324;28;20053;-80
2023/01/07 04:08:30;;;;;;;5.60;2.70;;;;;;;7.65;86.84;96642.00;5073956;28;20052;-79
2023/01/07 04:10:57;;;;;;;9.02;3.53;;;;;;;7.65;86.79;96645.53;5051054;28;20373;-80
2023/01/07 04:13:23;;;;;;;8.02;3.20;;;;;;;7.62;86.70;96629.03;5064348;28;20037;-78
2023/01/07 04:15:50;;;;;;;7.55;2.97;;;;;;;7.59;86.70;96633.94;5071099;28;20037;-79
2023/01/07 04:18:18;;;;;;;10.35;3.60;;;;;;;7.58;86.73;96631.53;5052454;28;20045;-80
2023/01/07 04:20:47;;;;;;;8.60;3.40;;;;;;;7.54;87.17;96628.59;5055959;28;20045;-80
2023/01/07 04:23:16;;;;;;;9.65;3.53;;;;;;;7.51;87.15;96625.66;5073750;28;20048;-79
2023/01/07 04:25:45;;;;;;;10.30;3.58;;;;;;;7.49;86.92;96623.25;5053208;28;20094;-80
2023/01/07 04:28:14;;;;;;;9.20;3.55;;;;;;;7.46;87.26;96618.38;5056462;28;20091;-79
2023/01/07 04:30:40;;;;;;;9.68;3.95;;;;;;;7.46;87.37;96623.81;5072459;28;20045;-79
2023/01/07 04:33:07;;;;;;;9.35;3.65;;;;;;;7.46;87.09;96618.38;5060605;28;20057;-79
2023/01/07 04:35:34;;;;;;;9.25;3.97;;;;;;;7.47;87.06;96611.91;5063903;28;20045;-79
2023/01/07 04:38:00;;;;;;;6.28;3.42;;;;;;;7.48;87.38;96618.13;5064730;28;20052;-79
2023/01/07 04:40:28;;;;;;;8.43;3.75;;;;;;;7.46;87.42;96620.28;5051706;28;20382;-79
2023/01/07 04:42:55;;;;;;;9.48;3.80;;;;;;;7.48;87.08;96620.84;5045134;28;20052;-82
2023/01/07 04:45:21;;;;;;;7.82;3.65;;;;;;;7.47;86.96;96614.59;5053167;28;20450;-79
2023/01/07 04:47:48;;;;;;;7.97;3.55;;;;;;;7.46;86.81;96612.97;5048888;28;20052;-79
2023/01/07 04:50:15;;;;;;;14.35;4.45;;;;;;;7.46;86.66;96610.25;5052112;28;20048;-79
2023/01/07 04:52:41;;;;;;;8.85;3.88;;;;;;;7.44;86.74;96603.53;5051310;28;20048;-79
2023/01/07 04:55:09;;;;;;;10.07;4.20;;;;;;;7.43;86.90;96597.31;5063853;28;20049;-81
2023/01/07 04:57:37;;;;;;;11.73;4.45;;;;;;;7.42;86.56;96595.72;5065314;28;20060;-79
2023/01/07 05:00:06;;;;;;;9.05;4.15;;;;;;;7.40;86.55;96597.88;5061935;28;20045;-79
2023/01/07 05:02:32;;;;;;;8.65;4.15;;;;;;;7.38;86.70;96589.25;5062820;28;20044;-80
2023/01/07 05:04:59;;;;;;;11.93;4.38;;;;;;;7.36;87.03;96585.22;5050458;28;20048;-79
2023/01/07 05:07:25;;;;;;;9.23;4.10;;;;;;;7.33;86.59;96582.00;5054967;28;20512;-79
2023/01/07 05:09:52;;;;;;;10.35;4.15;;;;;;;7.30;86.97;96587.19;5057944;28;20061;-79
2023/01/07 05:12:18;;;;;;;14.77;5.20;;;;;;;7.27;86.69;96576.94;5075971;28;20041;-79
2023/01/07 05:14:47;;;;;;;9.57;4.43;;;;;;;7.18;87.05;96584.91;5085728;28;20036;-80
2023/01/07 05:17:14;;;;;;;8.68;3.83;;;;;;;7.18;86.93;96576.78;5079756;28;20049;-80
2023/01/07 05:19:40;;;;;;;13.20;4.68;;;;;;;7.15;86.62;96574.66;5081293;28;20037;-81
2023/01/07 05:22:07;;;;;;;7.03;3.78;;;;;;;7.11;86.53;96570.91;5070885;28;20076;-80
2023/01/07 05:24:35;;;;;;;10.98;4.43;;;;;;;7.10;85.93;96565.78;5076721;28;20045;-80
2023/01/07 05:27:01;;;;;;;10.02;4.38;;;;;;;7.07;86.10;96564.47;5094364;28;20062;-80
2023/01/07 05:29:28;;;;;;;9.55;3.78;;;;;;;7.09;85.77;96561.47;5084141;28;20500;-79
2023/01/07 05:31:56;;;;;;;9.00;4.15;;;;;;;7.05;85.41;96553.13;5065842;28;20060;-80
2023/01/07 05:34:22;;;;;;;9.25;4.07;;;;;;;7.04;85.50;96563.13;5068600;28;20124;-79
2023/01/07 05:36:49;;;;;;;9.23;4.43;;;;;;;7.03;85.52;96547.97;5076666;28;20044;-80
2023/01/07 05:39:16;;;;;;;10.48;4.85;;;;;;;7.04;85.60;96551.50;5067406;28;20029;-80
2023/01/07 05:41:43;;;;;;;11.93;4.63;;;;;;;7.04;85.48;96541.47;5083697;28;20032;-80
2023/01/07 05:44:10;;;;;;;11.50;4.80;;;;;;;7.00;85.65;96545.88;5088680;28;20045;-81
2023/01/07 05:46:36;;;;;;;11.80;4.68;;;;;;;6.96;85.71;96544.03;5088204;28;20033;-81
2023/01/07 05:49:05;;;;;;;8.57;4.25;;;;;;;6.97;85.52;96535.63;5094640;28;20051;-81
2023/01/07 05:51:31;;;;;;;8.85;4.07;;;;;;;6.93;85.62;96540.00;5085663;28;20094;-81
2023/01/07 05:53:58;;;;;;;10.40;4.22;;;;;;;6.86;85.66;96528.72;5081321;28;20052;-82
2023/01/07 05:56:24;;;;;;;9.43;4.10;;;;;;;6.85;85.63;96531.72;5069844;28;20040;-81
2023/01/07 05:58:51;;;;;;;7.65;3.92;;;;;;;6.78;85.51;96526.63;5074873;28;20420;-81
2023/01/07 06:01:17;;;;;;;10.38;4.22;;;;;;;6.74;85.61;96522.91;5061372;28;20052;-81
2023/01/07 06:03:44;;;;;;;9.65;4.15;;;;;;;6.69;85.51;96525.69;5058769;28;20052;-81
2023/01/07 06:06:14;;;;;;;11.98;4.18;;;;;;;6.59;85.62;96518.50;5054310;28;20056;-81
2023/01/07 06:08:41;;;;;;;10.35;4.20;;;;;;;6.52;86.02;96529.66;5073501;28;20036;-81
2023/01/07 06:11:08;;;;;;;11.60;4.40;;;;;;;6.50;86.27;96526.41;5064797;28;20044;-81
2023/01/07 06:13:35;;;;;;;9.25;3.80;;;;;;;6.46;86.38;96522.69;5059662;28;20044;-81
2023/01/07 06:16:02;;;;;;;8.10;3.92;;;;;;;6.41;86.50;96522.72;5063736;28;20113;-80
2023/01/07 06:18:28;;;;;;;8.55;4.00;;;;;;;6.39;86.33;96524.13;5039914;28;20428;-80
2023/01/07 06:20:57;;;;;;;9.73;4.25;;;;;;;6.32;86.73;96519.06;5072339;28;20048;-81
2023/01/07 06:23:25;;;;;;;8.98;3.92;;;;;;;6.28;86.75;96521.53;5072319;28;20041;-81
2023/01/07 06:25:51;;;;;;;9.85;4.00;;;;;;;6.23;87.02;96518.06;5068332;28;20053;-81
2023/01/07 06:28:18;;;;;;;9.23;4.20;;;;;;;6.16;86.81;96510.31;5068590;28;20053;-81
2023/01/07 06:30:45;;;;;;;10.05;4.22;;;;;;;6.09;86.95;96514.41;5060245;28;20056;-81
2023/01/07 06:33:13;;;;;;;11.73;4.45;;;;;;;6.00;87.22;96517.75;5074099;28;20064;-81
2023/01/07 06:35:39;;;;;;;9.32;3.75;;;;;;;5.87;87.92;96512.16;5061883;28;20044;-81
2023/01/07 06:38:06;;;;;;;11.05;4.40;;;;;;;5.75;88.12;96515.22;5073473;28;20048;-81
2023/01/07 06:40:34;;;;;;;12.07;4.55;;;;;;;5.64;88.53;96508.31;5072075;28;20044;-80
2023/01/07 06:43:00;;;;;;;8.10;3.92;;;;;;;5.59;88.78;96516.44;5070088;28;20053;-81
2023/01/07 06:45:27;;;;;;;10.80;4.35;;;;;;;5.51;89.04;96507.03;5069465;28;20037;-81
2023/01/07 06:47:56;;;;;;;11.02;4.40;;;;;;;5.44;89.29;96509.25;5058218;28;20053;-81
2023/01/07 06:50:22;;;;;;;9.48;4.15;;;;;;;5.33;89.72;96508.53;5052654;28;20112;-81
2023/01/07 06:52:49;;;;;;;7.55;3.95;;;;;;;5.28;90.11;96511.25;5081686;28;20044;-82
2023/01/07 06:55:15;;;;;;;15.75;4.72;;;;;;;5.19;89.96;96499.44;5083881;28;20039;-81
2023/01/07 06:57:43;;;;;;;11.77;4.65;;;;;;;5.16;90.38;96502.69;5073128;28;20056;-82
2023/01/07 07:00:11;;;;;;;9.65;4.15;;;;;;;5.08;90.63;96500.59;5059451;28;20056;-81
2023/01/07 07:02:38;;;;;;;15.82;5.25;;;;;;;5.03;91.06;96508.72;5066041;28;20045;-81
2023/01/07 07:05:05;;;;;;;10.30;4.57;;;;;;;4.96;91.28;96499.03;5077124;28;20045;-81
2023/01/07 07:07:31;;;;;;;9.35;4.18;;;;;;;4.92;91.41;96497.97;5050666;28;20045;-81
2023/01/07 07:09:58;;;;;;;12.10;6.03;;;;;;;4.86;91.79;96493.69;5058574;28;20059;-81
2023/01/07 07:12:24;;;;;;;8.82;4.68;;;;;;;4.82;91.80;96498.03;5049334;28;20044;-81
2023/01/07 07:14:54;;;;;;;17.25;6.00;;;;;;;4.79;91.78;96495.88;5053735;28;20053;-80
2023/01/07 07:17:20;;;;;;;10.02;4.43;;;;;;;4.76;91.92;96499.13;5060287;28;20051;-81
2023/01/07 07:19:47;;;;;;;10.07;4.57;;;;;;;4.73;91.91;96494.28;5068888;28;20045;-80
2023/01/07 07:22:13;;;;;;;11.10;4.65;;;;;;;4.68;92.12;96502.38;5071108;28;20045;-80
2023/01/07 07:24:40;;;;;;;15.60;5.50;;;;;;;4.65;92.55;96492.16;5060277;28;20060;-80
2023/01/07 07:27:06;;;;;;;12.95;4.70;;;;;;;4.61;92.77;96499.19;5054319;28;20053;-81
2023/01/07 07:29:33;;;;;;;9.52;4.70;;;;;;;4.58;92.86;96497.03;5064735;28;20416;-80
2023/01/07 07:32:02;;;;;;;12.18;5.40;;;;;;;4.55;92.82;96498.41;5065188;28;20269;-81
2023/01/07 07:34:28;;;;;;;8.43;4.32;;;;;;;4.53;93.04;96505.16;5069783;28;20048;-79
2023/01/07 07:36:55;;;;;;;12.07;5.18;;;;;;;4.51;93.13;96494.66;5055411;28;20373;-81
2023/01/07 07:39:22;;;;;;;9.45;4.70;;;;;;;4.50;93.43;96494.94;5058734;28;20127;-81
2023/01/07 07:41:48;;;;;;;8.85;4.80;;;;;;;4.48;93.41;96487.09;5068139;28;20056;-81
2023/01/07 07:44:15;;;;;;;12.35;5.32;;;;;;;4.47;93.75;96490.06;5066409;28;20461;-80
2023/01/07 07:46:41;;;;;;;10.98;5.05;;;;;;;4.45;93.96;96487.66;5074160;28;20476;-80
2023/01/07 07:49:10;;;;;;;13.32;5.43;;;;;;;4.47;93.84;96492.78;5068566;28;20048;-80
2023/01/07 07:51:37;;;;;;;16.50;6.05;;;;;;;4.48;93.82;96486.28;5078270;28;20051;-82
2023/01/07 07:54:04;;;;;;;13.73;5.30;;;;;;;4.51;93.61;96483.84;5079135;28;20041;-81
2023/01/07 07:56:31;;;;;;;10.00;4.72;;;;;;;4.54;93.78;96482.47;5068781;28;20055;-81
2023/01/07 07:58:58;;;;;;;12.00;5.68;;;;;;;4.54;93.47;96474.41;5056752;28;20048;-81
2023/01/07 08:01:24;;;;;;;10.82;5.20;;;;;;;4.56;93.66;96474.94;5071092;28;20041;-82
2023/01/07 08:03:51;;;;;;;9.73;5.05;;;;;;;4.62;93.56;96471.13;5069501;28;20485;-81
2023/01/07 08:06:19;;;;;;;12.85;5.72;;;;;;;4.69;93.39;96468.94;5069689;28;20044;-81
2023/01/07 08:08:45;;;;;;;16.83;6.18;;;;;;;5.03;92.33;96460.94;5070178;28;20530;-81
2023/01/07 08:11:12;;;;;;;12.63;6.30;;;;;;;5.66;89.65;96461.00;5056381;28;20519;-81
2023/01/07 08:13:39;;;;;;;18.17;6.82;;;;;;;6.38;86.18;96458.41;5071770;28;20609;-81
2023/01/07 08:16:06;;;;;;;17.02;6.40;;;;;;;7.32;83.07;96460.41;5061552;28;20049;-79
2023/01/07 08:18:33;;;;;;;16.20;6.38;;;;;;;8.20;77.45;96463.25;5059049;28;20049;-79
2023/01/07 08:20:59;;;;;;;13.35;5.35;;;;;;;9.01;72.61;96460.84;5048164;28;20139;-78
2023/01/07 08:23:28;;;;;;;13.55;6.10;;;;;;;9.62;68.47;96462.94;5046872;28;20044;-79
2023/01/07 08:25:59;;;;;;;11.55;5.43;;;;;;;9.63;65.94;96461.84;5043197;28;20049;-78
2023/01/07 08:28:25;;;;;;;10.75;5.35;;;;;;;9.49;65.88;96455.66;5043636;28;20780;-79
2023/01/07 08:30:52;;;;;;;11.15;5.13;;;;;;;9.06;67.09;96442.50;5053250;28;20052;-79
2023/01/07 08:33:18;;;;;;;12.15;4.70;;;;;;;8.60;68.90;96440.75;5058779;28;20053;-80
2023/01/07 08:35:45;;;;;;;10.65;4.80;;;;;;;8.23;70.52;96441.75;5054220;28;20053;-79
2023/01/07 08:38:11;;;;;;;12.32;5.20;;;;;;;7.93;71.85;96440.41;5052516;28;20048;-80
2023/01/07 08:40:39;;;;;;;11.55;5.32;;;;;;;7.67;72.13;96426.47;5063147;28;20044;-80
2023/01/07 08:43:07;;;;;;;11.77;5.18;;;;;;;7.49;73.16;96425.44;5057563;28;20052;-78
2023/01/07 08:45:34;;;;;;;14.45;5.88;;;;;;;7.33;73.97;96424.88;5063032;28;20049;-78
2023/01/07 08:48:01;;;;;;;12.95;5.65;;;;;;;7.17;74.29;96414.59;5053046;28;20521;-79
2023/01/07 08:50:29;;;;;;;13.73;6.07;;;;;;;6.95;75.28;96418.69;5056390;28;20049;-79
2023/01/07 08:52:56;;;;;;;13.98;6.00;;;;;;;6.81;76.43;96412.41;5051529;28;20068;-78
2023/01/07 08:55:23;;;;;;;15.45;6.40;;;;;;;6.90;77.68;96399.03;5051303;28;20048;-78
2023/01/07 08:57:52;;;;;;;7.97;4.43;;;;;;;6.78;77.56;96404.84;5055586;28;20044;-81
2023/01/07 09:00:19;;;;;;;11.18;4.88;;;;;;;6.77;77.73;96411.38;5054813;28;20046;-77
2023/01/07 09:02:46;;;;;;;15.18;5.78;;;;;;;6.68;78.61;96410.41;5055064;28;20043;-80
2023/01/07 09:05:13;;;;;;;11.32;5.18;;;;;;;6.70;79.06;96400.09;5050360;28;20045;-79
2023/01/07 09:07:39;;;;;;;14.32;6.60;;;;;;;6.66;79.48;96404.47;5060267;28;20053;-79
2023/01/07 09:10:07;;;;;;;12.70;5.68;;;;;;;6.72;80.15;96408.72;5049033;28;20057;-79
2023/01/07 09:12:34;;;;;;;12.38;6.03;;;;;;;6.66;80.08;96399.88;5053586;28;20451;-80
2023/01/07 09:15:01;;;;;;;16.30;6.15;;;;;;;6.65;80.47;96402.88;5054040;28;20061;-79
2023/01/07 09:17:28;;;;;;;11.45;5.53;;;;;;;6.66;81.23;96399.06;5061550;28;20048;-79
2023/01/07 09:19:54;;;;;;;16.42;6.85;;;;;;;6.67;82.14;96397.97;5049492;28;20115;-80
2023/01/07 09:22:21;;;;;;;13.45;6.70;;;;;;;6.82;83.09;96391.53;5062721;28;20076;-79
2023/01/07 09:24:47;;;;;;;13.13;6.13;;;;;;;6.92;82.78;96405.72;5052919;28;20052;-79
2023/01/07 09:27:15;;;;;;;12.90;6.55;;;;;;;6.96;82.97;96401.34;5053301;28;20060;-79
2023/01/07 09:29:42;;;;;;;12.35;5.63;;;;;;;7.02;83.06;96389.34;5052443;28;20053;-79
2023/01/07 09:32:10;;;;;;;13.55;6.88;;;;;;;7.12;83.14;96390.28;5052077;28;20044;-80
2023/01/07 09:34:37;;;;;;;12.27;6.03;;;;;;;7.28;82.75;96391.66;5054355;28;20048;-80
2023/01/07 09:37:03;;;;;;;14.25;6.55;;;;;;;7.36;83.44;96396.41;5072382;28;20048;-80
2023/01/07 09:39:30;;;;;;;13.15;6.85;;;;;;;7.49;83.01;96392.91;5065087;28;20052;-78
2023/01/07 09:42:04;;;;;;;11.65;6.30;;;;;;;7.71;82.61;96396.88;5045196;28;20063;-78
2023/01/07 09:44:48;;;;;;;11.77;6.25;;;;;;;7.86;82.00;96393.91;5053536;28;20045;-78
2023/01/07 09:47:20;;;;;;;10.70;6.07;;;;;;;8.20;80.73;96387.31;5062329;28;20510;-78
2023/01/07 09:49:50;;;;;;;10.50;6.20;;;;;;;8.58;78.85;96387.91;5062327;28;20076;-79
2023/01/07 09:52:25;;;;;;;8.95;5.40;;;;;;;8.74;77.29;96385.66;5055390;28;20111;-79
2023/01/07 09:55:00;;;;;;;12.45;6.15;;;;;;;8.88;75.49;96375.56;5055139;28;20059;-78
2023/01/07 09:57:27;;;;;;;10.13;5.55;;;;;;;9.25;74.71;96376.34;5060749;28;20408;-79
2023/01/07 09:59:54;;;;;;;11.23;5.60;;;;;;;9.49;72.55;96374.09;5043956;28;20045;-78
2023/01/07 10:02:34;;;;;;;12.18;5.47;;;;;;;9.78;71.67;96375.56;5045930;28;20049;-79
2023/01/07 10:05:17;;;;;;;12.30;5.68;;;;;;;9.73;71.32;96372.97;5054703;28;20057;-79
2023/01/07 10:07:52;;;;;;;10.53;5.77;;;;;;;9.63;70.76;96363.97;5072721;28;20040;-80
2023/01/07 10:10:33;;;;;;;8.73;4.85;;;;;;;9.75;70.72;96359.84;5059260;28;20301;-80
2023/01/07 10:13:12;;;;;;;7.72;5.13;;;;;;;9.99;68.73;96352.13;5056712;28;20059;-82
2023/01/07 10:15:49;;;;;;;15.05;5.38;;;;;;;10.21;68.77;96345.81;5044116;28;20133;-79
2023/01/07 10:18:32;;;;;;;9.15;5.35;;;;;;;10.27;68.16;96343.78;5056329;28;20516;-79
2023/01/07 10:21:10;;;;;;;8.88;4.70;;;;;;;10.42;67.20;96340.59;5046366;28;20053;-78
2023/01/07 10:23:39;;;;;;;8.38;5.05;;;;;;;10.57;66.34;96334.72;5052878;28;20045;-80
2023/01/07 10:26:13;;;;;;;11.68;5.07;;;;;;;10.87;65.62;96329.47;5053270;28;20055;-79
2023/01/07 10:28:44;;;;;;;7.43;4.93;;;;;;;10.84;64.98;96325.44;5059564;28;20242;-78
2023/01/07 10:31:17;;;;;;;9.10;4.93;;;;;;;10.89;65.42;96327.22;5067754;28;20407;-79
2023/01/07 10:33:47;;;;;;;6.82;4.32;;;;;;;11.01;64.46;96316.47;5047168;28;20042;-78
2023/01/07 10:36:22;;;;;;;6.63;4.38;;;;;;;11.38;63.34;96316.91;5046972;28;20045;-78
2023/01/07 10:38:58;;;;;;;8.48;4.20;;;;;;;11.54;62.35;96309.81;5061612;28;20744;-79
2023/01/07 10:41:37;;;;;;;6.95;4.10;;;;;;;11.37;63.44;96301.66;5047301;28;20404;-80
2023/01/07 10:44:27;;;;;;;9.77;4.55;;;;;;;11.02;63.89;96304.47;5046664;28;20053;-78
2023/01/07 10:47:03;;;;;;;7.82;4.78;;;;;;;10.89;64.54;96299.97;5059248;28;20049;-79
2023/01/07 10:49:53;;;;;;;8.35;4.60;;;;;;;10.76;65.72;96295.50;5041364;28;20403;-79
2023/01/07 10:52:31;;;;;;;7.90;4.20;;;;;;;10.53;66.35;96282.00;5055979;28;20055;-79
2023/01/07 10:55:10;;;;;;;9.23;5.60;;;;;;;10.54;66.96;96283.59;5050436;28;20080;-79
2023/01/07 10:57:37;;;;;;;7.97;4.85;;;;;;;10.55;67.08;96279.78;5051186;28;20048;-80
2023/01/07 11:00:11;;;;;;;8.77;4.90;;;;;;;10.74;66.83;96284.09;5051725;28;20049;-81
2023/01/07 11:02:38;;;;;;;4.97;3.55;;;;;;;10.82;65.46;96273.22;5050276;28;20044;-79
2023/01/07 11:05:07;;;;;;;6.93;3.90;;;;;;;10.85;63.99;96277.22;5063536;28;20051;-78
2023/01/07 11:07:42;;;;;;;6.07;3.88;;;;;;;10.80;64.16;96271.91;5049807;28;20615;-78
2023/01/07 11:10:15;;;;;;;8.32;4.45;;;;;;;10.83;64.09;96268.56;5045174;28;20044;-78
2023/01/07 11:12:45;;;;;;;6.65;4.15;;;;;;;10.79;64.52;96256.72;5047771;28;20048;-77
2023/01/07 11:15:18;;;;;;;5.78;3.72;;;;;;;10.82;64.06;96258.81;5047780;28;20041;-79
2023/01/07 11:17:49;;;;;;;7.40;5.05;;;;;;;10.80;64.02;96263.75;5043483;28;20467;-78
2023/01/07 11:20:41;;;;;;;9.88;4.82;;;;;;;10.80;64.37;96252.84;5059760;28;20136;-78
2023/01/07 11:23:19;;;;;;;8.13;3.88;;;;;;;10.95;64.12;96252.38;5040540;28;20049;-78
2023/01/07 11:25:46;;;;;;;6.95;4.10;;;;;;;10.98;64.13;96254.44;5046158;28;20467;-78
2023/01/07 11:28:18;;;;;;;8.13;4.00;;;;;;;11.03;62.64;96246.13;5047441;28;20470;-79
2023/01/07 11:30:55;;;;;;;10.77;5.15;;;;;;;11.05;63.26;96238.41;5045915;28;20044;-78
2023/01/07 11:33:25;;;;;;;6.07;4.40;;;;;;;11.10;63.47;96229.25;5039255;28;21026;-78
2023/01/07 11:35:54;;;;;;;7.97;4.90;;;;;;;11.27;62.54;96236.59;5050320;28;20052;-78
2023/01/07 11:38:30;;;;;;;6.97;3.90;;;;;;;11.57;60.59;96232.81;5048653;28;20056;-78
2023/01/07 11:40:58;;;;;;;7.80;3.75;;;;;;;11.46;62.29;96217.94;5059110;28;20048;-81
2023/01/07 11:43:31;;;;;;;5.03;3.30;;;;;;;11.45;61.75;96219.06;5065663;28;20059;-81
2023/01/07 11:46:00;;;;;;;5.35;3.67;;;;;;;11.38;62.00;96213.28;5051279;28;20055;-79
2023/01/07 11:48:32;;;;;;;5.93;3.70;;;;;;;11.49;61.81;96203.66;5048618;28;20057;-79